Terminal Aerodrome Forecast
Issued by NWS Chicago, IL

Home | Current Version | Previous Version | Text Only | Print | Product List | Glossary Off
Versions: 1 2 3 4 5 6 7 8 9 10 11 12 13 14 15 16 17 18 19 20 21 22 23 24 25 26 27 28

000
FTUS43 KLOT 051635 AAC
TAFRFD
TAF AMD
KRFD 051635Z 0517/0612 33006KT P6SM SCT015 BKN250
      TEMPO 0517/0518 BKN015
     FM052300 22004KT P6SM OVC090
     FM060700 20006KT P6SM OVC060=

USA.gov is the U.S. government's official web portal to all federal, state and local government web resources and services.